sensor_id;sensor_type;location;lat;lon;timestamp;pressure;altitude;pressure_sealevel;temperature;humidity
49194;BME280;35029;50.804;12.866;2023-02-18T00:02:03;97947.41;;;8.16;100.00
49194;BME280;35029;50.804;12.866;2023-02-18T00:04:29;97973.41;;;8.27;100.00
49194;BME280;35029;50.804;12.866;2023-02-18T00:06:55;97955.81;;;8.20;100.00
49194;BME280;35029;50.804;12.866;2023-02-18T00:09:21;97945.00;;;8.06;100.00
49194;BME280;35029;50.804;12.866;2023-02-18T00:11:46;97963.56;;;8.21;100.00
49194;BME280;35029;50.804;12.866;2023-02-18T00:14:14;97970.13;;;8.25;100.00
49194;BME280;35029;50.804;12.866;2023-02-18T00:16:40;97962.25;;;8.17;100.00
49194;BME280;35029;50.804;12.866;2023-02-18T00:19:14;97984.72;;;8.13;100.00
49194;BME280;35029;50.804;12.866;2023-02-18T00:21:41;97997.22;;;8.19;100.00
49194;BME280;35029;50.804;12.866;2023-02-18T00:24:07;97996.94;;;8.14;100.00
49194;BME280;35029;50.804;12.866;2023-02-18T00:26:34;97998.41;;;8.17;100.00
49194;BME280;35029;50.804;12.866;2023-02-18T00:29:00;98007.78;;;8.19;100.00
49194;BME280;35029;50.804;12.866;2023-02-18T00:31:29;97954.81;;;7.89;100.00
49194;BME280;35029;50.804;12.866;2023-02-18T00:33:58;97977.47;;;8.07;100.00
49194;BME280;35029;50.804;12.866;2023-02-18T00:36:27;97983.31;;;8.02;100.00
49194;BME280;35029;50.804;12.866;2023-02-18T00:38:55;97958.09;;;7.91;100.00
49194;BME280;35029;50.804;12.866;2023-02-18T00:41:23;97971.56;;;8.05;100.00
49194;BME280;35029;50.804;12.866;2023-02-18T00:43:49;97982.94;;;8.05;100.00
49194;BME280;35029;50.804;12.866;2023-02-18T00:46:18;97969.28;;;8.02;100.00
49194;BME280;35029;50.804;12.866;2023-02-18T00:48:44;97984.06;;;8.11;100.00
49194;BME280;35029;50.804;12.866;2023-02-18T00:51:10;97986.53;;;8.12;100.00
49194;BME280;35029;50.804;12.866;2023-02-18T00:53:36;97986.38;;;8.14;100.00
49194;BME280;35029;50.804;12.866;2023-02-18T00:56:02;97980.09;;;8.15;100.00
49194;BME280;35029;50.804;12.866;2023-02-18T00:58:28;97984.19;;;8.18;100.00
49194;BME280;35029;50.804;12.866;2023-02-18T01:00:54;97989.03;;;8.14;100.00
49194;BME280;35029;50.804;12.866;2023-02-18T01:03:20;97967.28;;;8.04;100.00
49194;BME280;35029;50.804;12.866;2023-02-18T01:05:47;97974.16;;;8.13;100.00
49194;BME280;35029;50.804;12.866;2023-02-18T01:08:15;97977.16;;;8.10;100.00
49194;BME280;35029;50.804;12.866;2023-02-18T01:10:44;97989.84;;;8.15;100.00
49194;BME280;35029;50.804;12.866;2023-02-18T01:13:11;97980.44;;;8.12;100.00
49194;BME280;35029;50.804;12.866;2023-02-18T01:15:41;97982.28;;;8.11;100.00
49194;BME280;35029;50.804;12.866;2023-02-18T01:18:10;97985.09;;;8.10;100.00
49194;BME280;35029;50.804;12.866;2023-02-18T01:20:37;97971.44;;;7.98;100.00
49194;BME280;35029;50.804;12.866;2023-02-18T01:23:03;97988.34;;;8.12;100.00
49194;BME280;35029;50.804;12.866;2023-02-18T01:25:30;97977.66;;;8.05;100.00
49194;BME280;35029;50.804;12.866;2023-02-18T01:27:56;97986.44;;;8.06;100.00
49194;BME280;35029;50.804;12.866;2023-02-18T01:30:22;97979.72;;;7.95;100.00
49194;BME280;35029;50.804;12.866;2023-02-18T01:32:48;97985.94;;;8.02;100.00
49194;BME280;35029;50.804;12.866;2023-02-18T01:35:15;97978.66;;;8.04;100.00
49194;BME280;35029;50.804;12.866;2023-02-18T01:37:41;97989.53;;;8.09;100.00
49194;BME280;35029;50.804;12.866;2023-02-18T01:40:09;97966.97;;;7.99;100.00
49194;BME280;35029;50.804;12.866;2023-02-18T01:42:37;97985.72;;;8.12;100.00
49194;BME280;35029;50.804;12.866;2023-02-18T01:50:36;97975.06;;;7.97;100.00
49194;BME280;35029;50.804;12.866;2023-02-18T01:53:03;97976.38;;;8.01;100.00
49194;BME280;35029;50.804;12.866;2023-02-18T01:55:30;97974.25;;;7.97;100.00
49194;BME280;35029;50.804;12.866;2023-02-18T01:57:56;97970.09;;;8.02;100.00
49194;BME280;35029;50.804;12.866;2023-02-18T02:00:22;97962.53;;;7.99;100.00
49194;BME280;35029;50.804;12.866;2023-02-18T02:02:50;97964.69;;;7.95;100.00
49194;BME280;35029;50.804;12.866;2023-02-18T02:05:19;97967.63;;;8.01;100.00
49194;BME280;35029;50.804;12.866;2023-02-18T02:07:46;97971.44;;;7.98;100.00
49194;BME280;35029;50.804;12.866;2023-02-18T02:10:14;97969.97;;;7.95;100.00
49194;BME280;35029;50.804;12.866;2023-02-18T02:32:56;97981.06;;;7.91;100.00
49194;BME280;35029;50.804;12.866;2023-02-18T02:35:31;97990.16;;;7.80;100.00
49194;BME280;35029;50.804;12.866;2023-02-18T02:38:15;97985.72;;;7.81;100.00
49194;BME280;35029;50.804;12.866;2023-02-18T02:41:01;97992.66;;;7.73;100.00
49194;BME280;35029;50.804;12.866;2023-02-18T02:51:34;97982.66;;;7.60;100.00
49194;BME280;35029;50.804;12.866;2023-02-18T02:54:17;97981.03;;;7.59;100.00
49194;BME280;35029;50.804;12.866;2023-02-18T02:56:44;97992.91;;;7.55;100.00
49194;BME280;35029;50.804;12.866;2023-02-18T02:59:19;97978.41;;;7.51;100.00
49194;BME280;35029;50.804;12.866;2023-02-18T03:02:07;97978.56;;;7.50;100.00
49194;BME280;35029;50.804;12.866;2023-02-18T03:07:37;97979.88;;;7.45;100.00
49194;BME280;35029;50.804;12.866;2023-02-18T03:18:23;97977.25;;;7.45;100.00
49194;BME280;35029;50.804;12.866;2023-02-18T03:21:04;97968.03;;;7.41;100.00
49194;BME280;35029;50.804;12.866;2023-02-18T03:23:37;97968.03;;;7.41;100.00
49194;BME280;35029;50.804;12.866;2023-02-18T03:26:05;97973.00;;;7.44;100.00
49194;BME280;35029;50.804;12.866;2023-02-18T03:28:31;97973.81;;;7.37;100.00
49194;BME280;35029;50.804;12.866;2023-02-18T03:31:13;97974.16;;;7.34;100.00
49194;BME280;35029;50.804;12.866;2023-02-18T03:33:56;97970.38;;;7.36;100.00
49194;BME280;35029;50.804;12.866;2023-02-18T03:36:24;97969.19;;;7.39;100.00
49194;BME280;35029;50.804;12.866;2023-02-18T03:39:18;97972.84;;;7.38;100.00
49194;BME280;35029;50.804;12.866;2023-02-18T03:41:46;97945.31;;;7.24;100.00
49194;BME280;35029;50.804;12.866;2023-02-18T03:44:12;97971.00;;;7.47;100.00
49194;BME280;35029;50.804;12.866;2023-02-18T03:46:41;97960.13;;;7.41;100.00
49194;BME280;35029;50.804;12.866;2023-02-18T03:49:12;97962.28;;;7.38;100.00
49194;BME280;35029;50.804;12.866;2023-02-18T03:51:39;97955.00;;;7.48;100.00
49194;BME280;35029;50.804;12.866;2023-02-18T03:54:06;97959.81;;;7.44;100.00
49194;BME280;35029;50.804;12.866;2023-02-18T03:56:34;97960.44;;;7.47;100.00
49194;BME280;35029;50.804;12.866;2023-02-18T03:58:59;97961.75;;;7.51;100.00
49194;BME280;35029;50.804;12.866;2023-02-18T04:01:25;97950.06;;;7.45;100.00
49194;BME280;35029;50.804;12.866;2023-02-18T04:03:50;97947.13;;;7.32;100.00
49194;BME280;35029;50.804;12.866;2023-02-18T04:06:17;97972.81;;;7.46;100.00
49194;BME280;35029;50.804;12.866;2023-02-18T04:08:42;97984.84;;;7.49;100.00
49194;BME280;35029;50.804;12.866;2023-02-18T04:11:08;97969.84;;;7.49;100.00
49194;BME280;35029;50.804;12.866;2023-02-18T04:13:34;97974.44;;;7.47;100.00
49194;BME280;35029;50.804;12.866;2023-02-18T04:15:59;97959.47;;;7.39;100.00
49194;BME280;35029;50.804;12.866;2023-02-18T04:18:25;97974.78;;;7.44;100.00
49194;BME280;35029;50.804;12.866;2023-02-18T04:20:50;97974.63;;;7.45;100.00
49194;BME280;35029;50.804;12.866;2023-02-18T04:23:16;97966.41;;;7.40;100.00
49194;BME280;35029;50.804;12.866;2023-02-18T04:25:42;97970.16;;;7.54;100.00
49194;BME280;35029;50.804;12.866;2023-02-18T04:28:08;97975.28;;;7.48;100.00
49194;BME280;35029;50.804;12.866;2023-02-18T04:30:35;97970.31;;;7.53;100.00
49194;BME280;35029;50.804;12.866;2023-02-18T04:33:01;97946.94;;;7.41;100.00
49194;BME280;35029;50.804;12.866;2023-02-18T04:35:26;97955.97;;;7.47;100.00
49194;BME280;35029;50.804;12.866;2023-02-18T04:37:52;97954.34;;;7.46;100.00
49194;BME280;35029;50.804;12.866;2023-02-18T04:40:17;97955.50;;;7.43;100.00
49194;BME280;35029;50.804;12.866;2023-02-18T04:42:43;97948.91;;;7.48;100.00
49194;BME280;35029;50.804;12.866;2023-02-18T04:45:09;97944.81;;;7.37;100.00
49194;BME280;35029;50.804;12.866;2023-02-18T04:47:34;97945.31;;;7.40;100.00
49194;BME280;35029;50.804;12.866;2023-02-18T04:50:00;97945.13;;;7.42;100.00
49194;BME280;35029;50.804;12.866;2023-02-18T04:52:25;97940.69;;;7.34;100.00
49194;BME280;35029;50.804;12.866;2023-02-18T04:54:51;97929.66;;;7.31;100.00
49194;BME280;35029;50.804;12.866;2023-02-18T04:57:16;97933.31;;;7.30;100.00
49194;BME280;35029;50.804;12.866;2023-02-18T04:59:42;97956.63;;;7.49;100.00
49194;BME280;35029;50.804;12.866;2023-02-18T05:02:08;97961.41;;;7.45;100.00
49194;BME280;35029;50.804;12.866;2023-02-18T05:04:33;97951.03;;;7.44;100.00
49194;BME280;35029;50.804;12.866;2023-02-18T05:06:59;97959.94;;;7.43;100.00
49194;BME280;35029;50.804;12.866;2023-02-18T05:09:24;97955.97;;;7.47;100.00
49194;BME280;35029;50.804;12.866;2023-02-18T05:11:50;97944.47;;;7.40;100.00
49194;BME280;35029;50.804;12.866;2023-02-18T05:14:16;97941.34;;;7.44;100.00
49194;BME280;35029;50.804;12.866;2023-02-18T05:16:42;97901.69;;;7.21;100.00
49194;BME280;35029;50.804;12.866;2023-02-18T05:19:08;97934.56;;;7.50;100.00
49194;BME280;35029;50.804;12.866;2023-02-18T05:21:34;97919.03;;;7.55;100.00
49194;BME280;35029;50.804;12.866;2023-02-18T05:24:00;97912.78;;;7.48;100.00
49194;BME280;35029;50.804;12.866;2023-02-18T05:26:26;97910.63;;;7.52;100.00
49194;BME280;35029;50.804;12.866;2023-02-18T05:28:51;97907.66;;;7.55;100.00
49194;BME280;35029;50.804;12.866;2023-02-18T05:31:17;97896.28;;;7.54;100.00
49194;BME280;35029;50.804;12.866;2023-02-18T05:33:42;97889.53;;;7.52;100.00
49194;BME280;35029;50.804;12.866;2023-02-18T05:36:08;97881.13;;;7.48;100.00
49194;BME280;35029;50.804;12.866;2023-02-18T05:38:33;97893.69;;;7.46;100.00
49194;BME280;35029;50.804;12.866;2023-02-18T05:40:59;97873.09;;;7.41;100.00
49194;BME280;35029;50.804;12.866;2023-02-18T05:43:24;97871.69;;;7.54;100.00
49194;BME280;35029;50.804;12.866;2023-02-18T05:45:50;97873.72;;;7.52;100.00
49194;BME280;35029;50.804;12.866;2023-02-18T05:48:23;97887.72;;;7.52;100.00
49194;BME280;35029;50.804;12.866;2023-02-18T05:50:49;97872.06;;;7.51;100.00
49194;BME280;35029;50.804;12.866;2023-02-18T05:53:18;97871.88;;;7.52;100.00
49194;BME280;35029;50.804;12.866;2023-02-18T05:55:47;97858.88;;;7.51;100.00
49194;BME280;35029;50.804;12.866;2023-02-18T05:58:13;97868.25;;;7.53;100.00
49194;BME280;35029;50.804;12.866;2023-02-18T06:00:41;97867.75;;;7.50;100.00
49194;BME280;35029;50.804;12.866;2023-02-18T06:03:06;97855.88;;;7.54;100.00
49194;BME280;35029;50.804;12.866;2023-02-18T06:05:32;97847.31;;;7.52;100.00
49194;BME280;35029;50.804;12.866;2023-02-18T06:07:58;97853.59;;;7.51;100.00
49194;BME280;35029;50.804;12.866;2023-02-18T06:10:24;97845.69;;;7.51;100.00
49194;BME280;35029;50.804;12.866;2023-02-18T06:12:49;97853.94;;;7.48;100.00
49194;BME280;35029;50.804;12.866;2023-02-18T06:15:15;97789.50;;;7.19;100.00
49194;BME280;35029;50.804;12.866;2023-02-18T06:17:40;97819.69;;;7.39;100.00
49194;BME280;35029;50.804;12.866;2023-02-18T06:20:06;97835.47;;;7.48;100.00
49194;BME280;35029;50.804;12.866;2023-02-18T06:22:32;97830.69;;;7.51;100.00
49194;BME280;35029;50.804;12.866;2023-02-18T06:24:57;97826.09;;;7.45;100.00
49194;BME280;35029;50.804;12.866;2023-02-18T06:27:23;97822.13;;;7.49;100.00
49194;BME280;35029;50.804;12.866;2023-02-18T06:29:49;97827.75;;;7.46;100.00
49194;BME280;35029;50.804;12.866;2023-02-18T06:32:15;97818.88;;;7.39;100.00
49194;BME280;35029;50.804;12.866;2023-02-18T06:34:40;97810.84;;;7.24;100.00
49194;BME280;35029;50.804;12.866;2023-02-18T06:37:06;97801.03;;;7.18;100.00
49194;BME280;35029;50.804;12.866;2023-02-18T06:39:32;97834.38;;;7.42;100.00
49194;BME280;35029;50.804;12.866;2023-02-18T06:41:57;97831.19;;;7.47;100.00
49194;BME280;35029;50.804;12.866;2023-02-18T06:44:24;97837.94;;;7.49;100.00
49194;BME280;35029;50.804;12.866;2023-02-18T06:46:50;97818.72;;;7.40;100.00
49194;BME280;35029;50.804;12.866;2023-02-18T06:49:15;97835.31;;;7.49;100.00
49194;BME280;35029;50.804;12.866;2023-02-18T06:51:41;97813.59;;;7.39;100.00
49194;BME280;35029;50.804;12.866;2023-02-18T06:54:07;97827.34;;;7.57;100.00
49194;BME280;35029;50.804;12.866;2023-02-18T06:56:32;97828.47;;;7.63;100.00
49194;BME280;35029;50.804;12.866;2023-02-18T06:58:58;97807.72;;;7.60;100.00
49194;BME280;35029;50.804;12.866;2023-02-18T07:01:23;97807.91;;;7.82;100.00
49194;BME280;35029;50.804;12.866;2023-02-18T07:03:49;97811.34;;;7.82;100.00
49194;BME280;35029;50.804;12.866;2023-02-18T07:06:14;97819.38;;;7.89;100.00
49194;BME280;35029;50.804;12.866;2023-02-18T07:08:40;97799.56;;;7.93;100.00
49194;BME280;35029;50.804;12.866;2023-02-18T07:11:06;97786.38;;;7.93;100.00
49194;BME280;35029;50.804;12.866;2023-02-18T07:13:31;97785.84;;;7.98;100.00
49194;BME280;35029;50.804;12.866;2023-02-18T07:15:57;97794.50;;;8.06;100.00
49194;BME280;35029;50.804;12.866;2023-02-18T07:18:22;97793.97;;;8.11;100.00
49194;BME280;35029;50.804;12.866;2023-02-18T07:20:48;97784.34;;;8.18;100.00
49194;BME280;35029;50.804;12.866;2023-02-18T07:23:13;97777.34;;;8.25;100.00
49194;BME280;35029;50.804;12.866;2023-02-18T07:25:39;97777.72;;;8.22;100.00
49194;BME280;35029;50.804;12.866;2023-02-18T07:28:05;97782.91;;;8.31;100.00
49194;BME280;35029;50.804;12.866;2023-02-18T07:30:30;97771.00;;;8.35;100.00
49194;BME280;35029;50.804;12.866;2023-02-18T07:32:56;97762.50;;;8.39;100.00
49194;BME280;35029;50.804;12.866;2023-02-18T07:35:21;97750.94;;;8.40;100.00
49194;BME280;35029;50.804;12.866;2023-02-18T07:37:48;97755.00;;;8.51;100.00
49194;BME280;35029;50.804;12.866;2023-02-18T07:40:16;97756.38;;;8.47;100.00
49194;BME280;35029;50.804;12.866;2023-02-18T07:42:42;97744.34;;;8.59;100.00
49194;BME280;35029;50.804;12.866;2023-02-18T07:45:08;97756.28;;;8.55;100.00
49194;BME280;35029;50.804;12.866;2023-02-18T07:47:35;97743.97;;;8.62;100.00
49194;BME280;35029;50.804;12.866;2023-02-18T07:50:00;97739.59;;;8.70;100.00
49194;BME280;35029;50.804;12.866;2023-02-18T07:52:26;97741.69;;;8.74;100.00
49194;BME280;35029;50.804;12.866;2023-02-18T07:54:51;97748.06;;;8.80;100.00
49194;BME280;35029;50.804;12.866;2023-02-18T07:57:17;97745.41;;;8.80;100.00
49194;BME280;35029;50.804;12.866;2023-02-18T07:59:43;97736.78;;;8.71;100.00
49194;BME280;35029;50.804;12.866;2023-02-18T08:02:18;97755.69;;;8.90;100.00
49194;BME280;35029;50.804;12.866;2023-02-18T08:04:44;97749.22;;;8.92;100.00
49194;BME280;35029;50.804;12.866;2023-02-18T08:07:14;97741.94;;;8.94;100.00
49194;BME280;35029;50.804;12.866;2023-02-18T08:09:42;97749.31;;;8.99;100.00
49194;BME280;35029;50.804;12.866;2023-02-18T08:12:10;97725.16;;;8.87;100.00
49194;BME280;35029;50.804;12.866;2023-02-18T08:14:37;97743.22;;;8.99;100.00
49194;BME280;35029;50.804;12.866;2023-02-18T08:17:03;97745.47;;;9.02;100.00
49194;BME280;35029;50.804;12.866;2023-02-18T08:19:29;97710.94;;;8.88;100.00
49194;BME280;35029;50.804;12.866;2023-02-18T08:21:55;97709.13;;;8.89;100.00
49194;BME280;35029;50.804;12.866;2023-02-18T08:24:21;97726.69;;;9.11;100.00
49194;BME280;35029;50.804;12.866;2023-02-18T08:26:46;97739.97;;;9.18;100.00
49194;BME280;35029;50.804;12.866;2023-02-18T08:29:12;97734.50;;;9.20;100.00
49194;BME280;35029;50.804;12.866;2023-02-18T08:31:38;97718.78;;;9.33;100.00
49194;BME280;35029;50.804;12.866;2023-02-18T08:34:06;97696.66;;;9.19;100.00
49194;BME280;35029;50.804;12.866;2023-02-18T08:36:35;97715.19;;;9.41;100.00
49194;BME280;35029;50.804;12.866;2023-02-18T08:39:01;97719.84;;;9.39;100.00
49194;BME280;35029;50.804;12.866;2023-02-18T08:41:29;97704.22;;;9.44;100.00
49194;BME280;35029;50.804;12.866;2023-02-18T08:43:55;97707.75;;;9.51;100.00
49194;BME280;35029;50.804;12.866;2023-02-18T08:46:20;97694.03;;;9.41;100.00
49194;BME280;35029;50.804;12.866;2023-02-18T08:48:46;97700.88;;;9.35;100.00
49194;BME280;35029;50.804;12.866;2023-02-18T08:51:16;97696.81;;;9.33;100.00
49194;BME280;35029;50.804;12.866;2023-02-18T08:53:42;97696.81;;;9.33;100.00
49194;BME280;35029;50.804;12.866;2023-02-18T08:56:09;97682.66;;;9.25;100.00
49194;BME280;35029;50.804;12.866;2023-02-18T08:58:36;97653.56;;;9.04;100.00
49194;BME280;35029;50.804;12.866;2023-02-18T09:01:04;97698.00;;;9.30;100.00
49194;BME280;35029;50.804;12.866;2023-02-18T09:03:31;97698.41;;;9.34;100.00
49194;BME280;35029;50.804;12.866;2023-02-18T09:05:58;97695.34;;;9.30;100.00
49194;BME280;35029;50.804;12.866;2023-02-18T09:08:24;97689.88;;;9.32;100.00
49194;BME280;35029;50.804;12.866;2023-02-18T09:10:54;97684.84;;;9.37;100.00
49194;BME280;35029;50.804;12.866;2023-02-18T09:13:20;97640.59;;;9.09;100.00
49194;BME280;35029;50.804;12.866;2023-02-18T09:15:45;97681.94;;;9.32;100.00
49194;BME280;35029;50.804;12.866;2023-02-18T09:18:19;97676.00;;;9.29;100.00
49194;BME280;35029;50.804;12.866;2023-02-18T09:20:45;97687.28;;;9.38;100.00
49194;BME280;35029;50.804;12.866;2023-02-18T09:23:10;97679.78;;;9.42;100.00
49194;BME280;35029;50.804;12.866;2023-02-18T09:25:38;97690.53;;;9.40;100.00
49194;BME280;35029;50.804;12.866;2023-02-18T09:28:05;97678.56;;;9.44;100.00
49194;BME280;35029;50.804;12.866;2023-02-18T09:30:30;97683.88;;;9.44;100.00
49194;BME280;35029;50.804;12.866;2023-02-18T09:32:56;97674.66;;;9.40;100.00
49194;BME280;35029;50.804;12.866;2023-02-18T09:35:21;97661.03;;;9.37;100.00
49194;BME280;35029;50.804;12.866;2023-02-18T09:37:47;97652.75;;;9.25;100.00
49194;BME280;35029;50.804;12.866;2023-02-18T09:40:28;97643.97;;;9.18;100.00
49194;BME280;35029;50.804;12.866;2023-02-18T09:42:56;97646.66;;;9.24;100.00
49194;BME280;35029;50.804;12.866;2023-02-18T09:45:22;97642.94;;;9.19;100.00
49194;BME280;35029;50.804;12.866;2023-02-18T09:47:49;97612.34;;;9.09;100.00
49194;BME280;35029;50.804;12.866;2023-02-18T09:50:41;97617.56;;;9.24;100.00
49194;BME280;35029;50.804;12.866;2023-02-18T09:53:10;97629.75;;;9.25;100.00
49194;BME280;35029;50.804;12.866;2023-02-18T09:55:38;97631.91;;;9.37;100.00
49194;BME280;35029;50.804;12.866;2023-02-18T09:58:10;97628.63;;;9.35;100.00
49194;BME280;35029;50.804;12.866;2023-02-18T10:00:40;97629.88;;;9.39;100.00
49194;BME280;35029;50.804;12.866;2023-02-18T10:03:13;97625.66;;;9.44;100.00
49194;BME280;35029;50.804;12.866;2023-02-18T10:05:53;97631.00;;;9.51;100.00
49194;BME280;35029;50.804;12.866;2023-02-18T10:08:28;97613.75;;;9.55;100.00
49194;BME280;35029;50.804;12.866;2023-02-18T10:10:54;97611.34;;;9.60;100.00
49194;BME280;35029;50.804;12.866;2023-02-18T10:13:24;97609.75;;;9.66;100.00
49194;BME280;35029;50.804;12.866;2023-02-18T10:15:50;97609.41;;;9.76;100.00
49194;BME280;35029;50.804;12.866;2023-02-18T10:18:26;97593.78;;;9.81;100.00
49194;BME280;35029;50.804;12.866;2023-02-18T10:21:06;97594.00;;;9.86;100.00
49194;BME280;35029;50.804;12.866;2023-02-18T10:23:35;97592.22;;;9.93;100.00
49194;BME280;35029;50.804;12.866;2023-02-18T10:26:04;97591.41;;;9.93;100.00
49194;BME280;35029;50.804;12.866;2023-02-18T10:28:32;97579.81;;;10.01;100.00
49194;BME280;35029;50.804;12.866;2023-02-18T10:31:05;97571.88;;;10.01;100.00
49194;BME280;35029;50.804;12.866;2023-02-18T10:33:38;97589.88;;;10.12;100.00
49194;BME280;35029;50.804;12.866;2023-02-18T10:36:23;97593.53;;;10.11;100.00
49194;BME280;35029;50.804;12.866;2023-02-18T10:41:59;97565.03;;;10.13;100.00
49194;BME280;35029;50.804;12.866;2023-02-18T10:52:37;97574.78;;;10.12;100.00
49194;BME280;35029;50.804;12.866;2023-02-18T10:55:10;97549.72;;;10.08;100.00
49194;BME280;35029;50.804;12.866;2023-02-18T10:57:50;97567.44;;;10.08;100.00
49194;BME280;35029;50.804;12.866;2023-02-18T11:00:19;97569.47;;;10.06;100.00
49194;BME280;35029;50.804;12.866;2023-02-18T11:05:37;97550.31;;;10.04;100.00
49194;BME280;35029;50.804;12.866;2023-02-18T11:08:07;97528.63;;;9.87;100.00
49194;BME280;35029;50.804;12.866;2023-02-18T11:10:34;97560.28;;;10.02;100.00
49194;BME280;35029;50.804;12.866;2023-02-18T11:13:06;97557.22;;;10.05;100.00
49194;BME280;35029;50.804;12.866;2023-02-18T11:15:32;97550.94;;;10.06;100.00
49194;BME280;35029;50.804;12.866;2023-02-18T11:20:59;97487.06;;;9.80;100.00
49194;BME280;35029;50.804;12.866;2023-02-18T11:23:25;97540.38;;;10.12;100.00
49194;BME280;35029;50.804;12.866;2023-02-18T11:25:59;97514.44;;;10.01;100.00
49194;BME280;35029;50.804;12.866;2023-02-18T11:28:49;97522.41;;;10.01;100.00
49194;BME280;35029;50.804;12.866;2023-02-18T11:31:23;97527.50;;;10.03;100.00
49194;BME280;35029;50.804;12.866;2023-02-18T11:33:55;97522.75;;;9.91;100.00
49194;BME280;35029;50.804;12.866;2023-02-18T11:36:30;97530.47;;;9.86;100.00
49194;BME280;35029;50.804;12.866;2023-02-18T11:39:03;97533.88;;;9.80;100.00
49194;BME280;35029;50.804;12.866;2023-02-18T11:41:42;97535.50;;;9.74;100.00
49194;BME280;35029;50.804;12.866;2023-02-18T11:44:35;97546.50;;;9.78;100.00
49194;BME280;35029;50.804;12.866;2023-02-18T11:47:18;97540.97;;;9.73;100.00
49194;BME280;35029;50.804;12.866;2023-02-18T11:52:26;97538.28;;;9.66;100.00
49194;BME280;35029;50.804;12.866;2023-02-18T11:57:50;97536.59;;;9.58;100.00
49194;BME280;35029;50.804;12.866;2023-02-18T12:00:49;97542.53;;;9.60;100.00
49194;BME280;35029;50.804;12.866;2023-02-18T12:06:04;97542.50;;;9.54;99.28
49194;BME280;35029;50.804;12.866;2023-02-18T12:08:40;97502.75;;;9.47;99.29
49194;BME280;35029;50.804;12.866;2023-02-18T12:11:15;97515.19;;;9.46;99.32
49194;BME280;35029;50.804;12.866;2023-02-18T12:13:54;97511.69;;;9.46;97.76
49194;BME280;35029;50.804;12.866;2023-02-18T12:21:49;97493.56;;;9.43;97.64
49194;BME280;35029;50.804;12.866;2023-02-18T12:37:39;97515.94;;;9.40;94.87
49194;BME280;35029;50.804;12.866;2023-02-18T12:45:53;97513.69;;;9.37;93.02
49194;BME280;35029;50.804;12.866;2023-02-18T12:54:10;97503.34;;;9.42;93.58
49194;BME280;35029;50.804;12.866;2023-02-18T12:59:32;97510.84;;;9.39;92.00
49194;BME280;35029;50.804;12.866;2023-02-18T13:10:11;97479.75;;;9.41;87.49
49194;BME280;35029;50.804;12.866;2023-02-18T13:13:02;97487.28;;;9.44;87.61
49194;BME280;35029;50.804;12.866;2023-02-18T13:18:00;97488.56;;;9.55;85.62
49194;BME280;35029;50.804;12.866;2023-02-18T13:20:40;97482.47;;;9.61;83.75
49194;BME280;35029;50.804;12.866;2023-02-18T13:23:15;97461.91;;;9.56;84.77
49194;BME280;35029;50.804;12.866;2023-02-18T13:25:42;97474.25;;;9.42;84.58
49194;BME280;35029;50.804;12.866;2023-02-18T13:31:22;97490.47;;;9.33;87.73
49194;BME280;35029;50.804;12.866;2023-02-18T13:34:00;97482.28;;;9.27;89.24
49194;BME280;35029;50.804;12.866;2023-02-18T13:36:35;97482.44;;;9.19;87.78
49194;BME280;35029;50.804;12.866;2023-02-18T13:39:12;97484.44;;;9.17;87.18
49194;BME280;35029;50.804;12.866;2023-02-18T13:41:46;97484.28;;;9.25;86.23
49194;BME280;35029;50.804;12.866;2023-02-18T13:46:57;97484.09;;;9.27;86.49
49194;BME280;35029;50.804;12.866;2023-02-18T13:49:25;97473.53;;;9.27;85.95
49194;BME280;35029;50.804;12.866;2023-02-18T13:51:56;97495.50;;;9.27;85.12
49194;BME280;35029;50.804;12.866;2023-02-18T13:56:58;97508.53;;;9.29;85.61
49194;BME280;35029;50.804;12.866;2023-02-18T13:59:45;97481.09;;;9.30;85.25
49194;BME280;35029;50.804;12.866;2023-02-18T14:10:03;97487.59;;;9.27;86.24
49194;BME280;35029;50.804;12.866;2023-02-18T14:12:42;97484.09;;;9.27;86.90
49194;BME280;35029;50.804;12.866;2023-02-18T14:18:32;97493.25;;;9.24;87.24
49194;BME280;35029;50.804;12.866;2023-02-18T14:25:57;97496.91;;;9.23;88.56
49194;BME280;35029;50.804;12.866;2023-02-18T14:44:28;97491.81;;;9.22;88.81
49194;BME280;35029;50.804;12.866;2023-02-18T14:49:43;97509.22;;;9.09;89.08
49194;BME280;35029;50.804;12.866;2023-02-18T14:52:31;97534.31;;;9.20;88.14
49194;BME280;35029;50.804;12.866;2023-02-18T14:55:00;97528.59;;;9.17;88.71
49194;BME280;35029;50.804;12.866;2023-02-18T14:57:40;97501.09;;;9.11;88.49
49194;BME280;35029;50.804;12.866;2023-02-18T15:00:15;97523.50;;;9.15;89.43
49194;BME280;35029;50.804;12.866;2023-02-18T15:02:40;97525.25;;;9.08;89.25
49194;BME280;35029;50.804;12.866;2023-02-18T15:05:21;97502.00;;;8.96;89.02
49194;BME280;35029;50.804;12.866;2023-02-18T15:08:01;97512.44;;;9.05;88.63
49194;BME280;35029;50.804;12.866;2023-02-18T15:10:36;97529.00;;;9.13;88.54
49194;BME280;35029;50.804;12.866;2023-02-18T15:13:08;97534.44;;;9.12;89.45
49194;BME280;35029;50.804;12.866;2023-02-18T15:15:37;97533.56;;;9.05;88.45
49194;BME280;35029;50.804;12.866;2023-02-18T15:18:03;97539.94;;;9.10;89.53
49194;BME280;35029;50.804;12.866;2023-02-18T15:20:33;97539.59;;;9.20;89.61
49194;BME280;35029;50.804;12.866;2023-02-18T15:22:59;97545.72;;;9.21;89.65
49194;BME280;35029;50.804;12.866;2023-02-18T15:25:25;97557.94;;;9.22;89.94
49194;BME280;35029;50.804;12.866;2023-02-18T15:27:51;97547.91;;;9.17;88.98
49194;BME280;35029;50.804;12.866;2023-02-18T15:30:27;97538.59;;;9.21;90.17
49194;BME280;35029;50.804;12.866;2023-02-18T15:32:56;97567.88;;;9.20;91.16
49194;BME280;35029;50.804;12.866;2023-02-18T15:35:27;97537.72;;;9.14;91.16
49194;BME280;35029;50.804;12.866;2023-02-18T15:37:59;97531.56;;;9.07;92.20